createdAt,value
2018-07-25T00:01:36.665Z,9.73
2018-07-25T00:04:06.009Z,10.23
2018-07-25T00:06:34.593Z,10.27
2018-07-25T00:09:02.880Z,10.83
2018-07-25T00:11:31.473Z,11.57
2018-07-25T00:14:00.045Z,10.33
2018-07-25T00:16:29.407Z,10.53
2018-07-25T00:18:57.979Z,10.63
2018-07-25T00:21:26.564Z,10.73
2018-07-25T00:23:55.151Z,11.10
2018-07-25T00:26:23.836Z,10.80
2018-07-25T00:28:52.727Z,11.20
2018-07-25T00:31:21.318Z,11.87
2018-07-25T00:33:49.852Z,11.00
2018-07-25T00:36:18.450Z,10.37
2018-07-25T00:38:47.038Z,11.90
2018-07-25T00:41:15.641Z,12.00
2018-07-25T00:43:44.225Z,11.47
2018-07-25T00:46:12.813Z,11.73
2018-07-25T00:48:41.375Z,11.23
2018-07-25T00:51:10.059Z,11.33
2018-07-25T00:53:39.190Z,11.37
2018-07-25T00:56:07.861Z,11.00
2018-07-25T00:58:36.423Z,11.90
2018-07-25T01:01:05.064Z,12.73
2018-07-25T01:03:33.640Z,13.13
2018-07-25T01:06:02.246Z,12.37
2018-07-25T01:08:30.825Z,12.40
2018-07-25T01:10:59.405Z,12.80
2018-07-25T01:13:29.177Z,12.50
2018-07-25T01:15:57.796Z,12.60
2018-07-25T01:18:26.360Z,13.40
2018-07-25T01:20:54.930Z,12.80
2018-07-25T01:23:24.187Z,13.70
2018-07-25T01:25:52.750Z,12.20
2018-07-25T01:28:21.366Z,13.43
2018-07-25T01:30:49.583Z,12.40
2018-07-25T01:33:18.168Z,12.83
2018-07-25T01:35:46.760Z,11.90
2018-07-25T01:38:15.423Z,11.40
2018-07-25T01:40:44.468Z,12.07
2018-07-25T01:43:13.030Z,12.30
2018-07-25T01:45:41.633Z,11.90
2018-07-25T01:48:10.233Z,12.07
2018-07-25T01:50:39.504Z,13.20
2018-07-25T01:53:08.131Z,13.90
2018-07-25T01:55:37.361Z,14.17
2018-07-25T01:58:06.200Z,14.10
2018-07-25T02:00:35.321Z,13.67
2018-07-25T02:03:03.557Z,13.40
2018-07-25T02:05:32.145Z,13.93
2018-07-25T02:08:00.732Z,12.03
2018-07-25T02:10:29.881Z,12.07
2018-07-25T02:12:58.474Z,13.00
2018-07-25T02:15:27.525Z,12.03
2018-07-25T02:17:56.747Z,12.63
2018-07-25T02:20:25.315Z,12.97
2018-07-25T02:22:53.552Z,12.43
2018-07-25T02:25:22.114Z,13.17
2018-07-25T02:27:50.689Z,13.83
2018-07-25T02:30:19.274Z,12.80
2018-07-25T02:32:49.062Z,13.07
2018-07-25T02:35:17.252Z,13.70
2018-07-25T02:37:45.837Z,13.27
2018-07-25T02:40:14.402Z,13.90
2018-07-25T02:42:42.659Z,14.60
2018-07-25T02:45:10.880Z,15.10
2018-07-25T02:47:39.457Z,13.77
2018-07-25T02:50:08.496Z,14.33
2018-07-25T02:52:37.857Z,13.03
2018-07-25T02:55:07.293Z,13.27
2018-07-25T02:57:35.894Z,14.07
2018-07-25T03:00:05.323Z,14.17
2018-07-25T03:02:35.112Z,13.77
2018-07-25T03:05:03.786Z,13.73
2018-07-25T03:07:32.511Z,13.80
2018-07-25T03:10:01.093Z,14.77
2018-07-25T03:12:29.930Z,14.30
2018-07-25T03:14:58.976Z,13.83
2018-07-25T03:17:28.150Z,13.80
2018-07-25T03:19:57.286Z,13.03
2018-07-25T03:22:26.783Z,12.90
2018-07-25T03:24:55.020Z,13.17
2018-07-25T03:27:24.366Z,12.30
2018-07-25T03:29:53.862Z,13.27
2018-07-25T03:32:22.461Z,13.97
2018-07-25T03:34:51.152Z,14.60
2018-07-25T03:37:20.333Z,15.43
2018-07-25T03:39:50.234Z,15.80
2018-07-25T03:42:18.853Z,14.57
2018-07-25T03:44:47.461Z,15.10
2018-07-25T03:47:16.068Z,14.40
2018-07-25T03:49:44.631Z,14.13
2018-07-25T03:52:14.506Z,15.20
2018-07-25T03:54:43.349Z,14.93
2018-07-25T03:57:11.958Z,14.20
2018-07-25T03:59:40.511Z,14.93
2018-07-25T04:02:09.130Z,15.23
2018-07-25T04:04:37.795Z,15.33
2018-07-25T04:07:07.342Z,15.63
2018-07-25T04:09:36.587Z,15.20
2018-07-25T04:12:05.612Z,16.57
2018-07-25T04:14:35.554Z,14.83
2018-07-25T04:17:05.002Z,14.47
2018-07-25T04:19:33.604Z,14.73
2018-07-25T04:22:02.890Z,14.13
2018-07-25T04:24:31.475Z,14.13
2018-07-25T04:27:00.054Z,13.60
2018-07-25T04:29:29.140Z,12.60
2018-07-25T04:31:57.721Z,13.00
2018-07-25T04:34:26.317Z,13.17
2018-07-25T04:36:54.858Z,13.53
2018-07-25T04:39:24.238Z,14.80
2018-07-25T04:41:54.355Z,17.07
2018-07-25T04:44:22.964Z,15.97
2018-07-25T04:46:51.553Z,16.00
2018-07-25T04:49:20.183Z,15.23
2018-07-25T04:51:48.757Z,15.37
2018-07-25T04:54:18.633Z,14.90
2018-07-25T04:56:47.190Z,14.50
2018-07-25T04:59:16.656Z,14.07
2018-07-25T05:01:45.243Z,14.13
2018-07-25T05:04:13.829Z,15.70
2018-07-25T05:06:42.401Z,15.07
2018-07-25T05:09:12.994Z,14.37
2018-07-25T05:11:42.344Z,14.87
2018-07-25T05:14:11.085Z,15.00
2018-07-25T05:16:40.417Z,14.17
2018-07-25T05:19:09.900Z,14.27
2018-07-25T05:21:38.478Z,14.10
2018-07-25T05:24:07.648Z,13.80
2018-07-25T05:26:37.078Z,14.57
2018-07-25T05:29:05.737Z,13.87
2018-07-25T05:31:35.405Z,12.33
2018-07-25T05:34:04.057Z,12.03
2018-07-25T05:36:33.106Z,12.23
2018-07-25T05:39:01.733Z,11.63
2018-07-25T05:41:30.406Z,10.77
2018-07-25T05:44:00.318Z,11.20
2018-07-25T05:46:29.496Z,9.97
2018-07-25T05:48:59.843Z,10.50
2018-07-25T05:51:28.449Z,11.23
2018-07-25T05:53:57.759Z,10.03
2018-07-25T05:56:26.489Z,10.60
2018-07-25T05:58:55.816Z,10.93
2018-07-25T06:01:25.338Z,9.97
2018-07-25T06:03:54.481Z,10.10
2018-07-25T06:06:22.871Z,10.20
2018-07-25T06:08:51.705Z,10.53
2018-07-25T06:11:20.337Z,10.87
2018-07-25T06:13:48.577Z,10.47
2018-07-25T06:16:17.157Z,10.17
2018-07-25T06:18:45.790Z,10.20
2018-07-25T06:21:15.702Z,11.30
2018-07-25T06:23:44.011Z,11.10
2018-07-25T06:26:12.587Z,11.00
2018-07-25T06:28:41.242Z,11.27
2018-07-25T06:31:09.830Z,10.10
2018-07-25T06:33:39.059Z,10.63
2018-07-25T06:36:07.964Z,10.83
2018-07-25T06:38:36.552Z,10.57
2018-07-25T06:41:05.184Z,11.97
2018-07-25T06:43:34.466Z,11.50
2018-07-25T06:46:03.121Z,12.00
2018-07-25T06:48:31.888Z,10.67
2018-07-25T06:51:00.493Z,11.70
2018-07-25T06:53:29.176Z,11.53
2018-07-25T06:55:57.852Z,11.67
2018-07-25T06:58:26.671Z,10.83
2018-07-25T07:00:56.310Z,10.20
2018-07-25T07:03:24.994Z,10.53
2018-07-25T07:05:53.942Z,11.37
2018-07-25T07:08:22.584Z,10.43
2018-07-25T07:10:51.312Z,11.23
2018-07-25T07:13:20.086Z,10.50
2018-07-25T07:15:48.721Z,11.33
2018-07-25T07:18:18.329Z,11.60
2018-07-25T07:20:47.016Z,11.27
2018-07-25T07:23:15.575Z,10.10
2018-07-25T07:25:44.220Z,10.50
2018-07-25T07:28:13.038Z,10.13
2018-07-25T07:30:42.016Z,10.67
2018-07-25T07:33:10.661Z,10.17
2018-07-25T07:35:39.301Z,9.77
2018-07-25T07:38:07.909Z,9.97
2018-07-25T07:40:37.167Z,10.30
2018-07-25T07:43:06.485Z,10.43
2018-07-25T07:45:35.169Z,9.43
2018-07-25T07:48:03.938Z,10.13
2018-07-25T07:50:32.606Z,9.70
2018-07-25T07:53:01.428Z,9.67
2018-07-25T07:55:30.122Z,8.57
2018-07-25T07:57:58.743Z,8.93
2018-07-25T08:00:27.324Z,7.47
2018-07-25T08:02:55.928Z,8.27
2018-07-25T08:05:24.523Z,7.83
2018-07-25T08:07:53.552Z,8.30
2018-07-25T08:10:22.817Z,7.63
2018-07-25T08:12:51.048Z,7.93
2018-07-25T08:15:19.722Z,7.93
2018-07-25T08:17:48.740Z,8.43
2018-07-25T08:20:17.391Z,7.50
2018-07-25T08:22:46.538Z,8.60
2018-07-25T08:25:15.118Z,7.47
2018-07-25T08:27:44.313Z,7.60
2018-07-25T08:30:13.576Z,7.43
2018-07-25T08:32:42.763Z,7.73
2018-07-25T08:35:11.975Z,7.40
2018-07-25T08:37:41.051Z,7.30
2018-07-25T08:40:09.657Z,7.60
2018-07-25T08:42:38.478Z,6.87
2018-07-25T08:45:07.878Z,7.77
2018-07-25T08:47:36.496Z,7.53
2018-07-25T08:50:06.768Z,7.03
2018-07-25T08:52:35.555Z,7.20
2018-07-25T08:55:03.760Z,6.70
2018-07-25T08:57:32.355Z,7.60
2018-07-25T09:00:00.946Z,7.10
2018-07-25T09:02:29.556Z,7.23
2018-07-25T09:04:57.828Z,6.73
2018-07-25T09:07:26.305Z,6.87
2018-07-25T09:09:54.542Z,7.40
2018-07-25T09:12:23.128Z,6.60
2018-07-25T09:14:52.381Z,7.00
2018-07-25T09:17:21.014Z,6.50
2018-07-25T09:19:49.567Z,6.53
2018-07-25T09:22:18.233Z,6.97
2018-07-25T09:24:48.593Z,6.63
2018-07-25T09:27:17.201Z,6.27
2018-07-25T09:29:45.975Z,6.27
2018-07-25T09:32:14.612Z,6.90
2018-07-25T09:34:43.200Z,5.93
2018-07-25T09:37:11.821Z,6.10
2018-07-25T09:39:40.469Z,6.53
2018-07-25T09:42:09.110Z,6.07
2018-07-25T09:44:38.197Z,6.10
2018-07-25T09:47:07.541Z,6.00
2018-07-25T09:49:36.731Z,6.00
2018-07-25T09:52:05.808Z,6.10
2018-07-25T09:54:35.281Z,5.73
2018-07-25T09:57:03.910Z,6.00
2018-07-25T09:59:32.514Z,5.63
2018-07-25T10:02:01.634Z,5.47
2018-07-25T10:04:30.229Z,5.40
2018-07-25T10:06:59.158Z,5.77
2018-07-25T10:09:27.889Z,5.63
2018-07-25T10:11:56.454Z,5.70
2018-07-25T10:14:24.897Z,5.60
2018-07-25T10:16:53.493Z,5.07
2018-07-25T10:19:22.792Z,5.40
2018-07-25T10:21:51.727Z,5.43
2018-07-25T10:24:20.382Z,5.40
2018-07-25T10:26:49.511Z,5.50
2018-07-25T10:29:18.375Z,5.17
2018-07-25T10:31:47.192Z,5.00
2018-07-25T10:34:15.830Z,4.40
2018-07-25T10:36:45.277Z,4.80
2018-07-25T10:39:14.505Z,5.20
2018-07-25T10:41:43.098Z,5.20
2018-07-25T10:44:11.942Z,5.00
2018-07-25T10:46:40.414Z,5.27
2018-07-25T10:49:09.400Z,5.53
2018-07-25T10:51:39.281Z,5.30
2018-07-25T10:54:07.894Z,5.47
2018-07-25T10:56:36.496Z,6.00
2018-07-25T10:59:04.785Z,5.37
2018-07-25T11:01:33.370Z,5.47
2018-07-25T11:04:02.545Z,5.60
2018-07-25T11:06:31.790Z,5.20
2018-07-25T11:09:00.394Z,5.20
2018-07-25T11:11:30.209Z,5.47
2018-07-25T11:14:00.090Z,5.10
2018-07-25T11:16:29.979Z,5.30
2018-07-25T11:19:00.086Z,5.20
2018-07-25T11:21:29.364Z,4.73
2018-07-25T11:23:57.970Z,5.00
2018-07-25T11:26:26.574Z,5.07
2018-07-25T11:28:55.213Z,5.27
2018-07-25T11:31:24.226Z,5.93
2018-07-25T11:33:52.933Z,5.97
2018-07-25T11:36:21.634Z,5.70
2018-07-25T11:38:50.709Z,5.30
2018-07-25T11:41:19.301Z,5.50
2018-07-25T11:43:49.538Z,4.83
2018-07-25T11:46:18.214Z,5.20
2018-07-25T11:48:46.874Z,5.00
2018-07-25T11:51:16.105Z,5.27
2018-07-25T11:53:44.709Z,5.03
2018-07-25T11:56:13.617Z,5.17
2018-07-25T11:58:42.947Z,4.70
2018-07-25T12:01:12.073Z,4.53
2018-07-25T12:03:40.660Z,5.23
2018-07-25T12:06:09.237Z,4.77
2018-07-25T12:08:37.866Z,5.20
2018-07-25T12:11:07.420Z,5.20
2018-07-25T12:13:36.209Z,5.33
2018-07-25T12:16:04.985Z,5.23
2018-07-25T12:18:33.888Z,5.40
2018-07-25T12:21:02.496Z,5.77
2018-07-25T12:23:31.866Z,4.77
2018-07-25T12:26:01.541Z,4.53
2018-07-25T12:28:30.920Z,5.00
2018-07-25T12:30:59.508Z,4.67
2018-07-25T12:33:28.142Z,4.43
2018-07-25T12:35:56.726Z,4.83
2018-07-25T12:38:25.393Z,5.33
2018-07-25T12:40:54.063Z,5.47
2018-07-25T12:43:23.781Z,5.20
2018-07-25T12:45:52.393Z,4.83
2018-07-25T12:48:21.081Z,4.87
2018-07-25T12:50:49.284Z,5.07
2018-07-25T12:53:17.630Z,5.33
2018-07-25T12:55:45.805Z,5.33
2018-07-25T12:58:15.156Z,5.07
2018-07-25T13:00:43.384Z,5.03
2018-07-25T13:03:12.193Z,5.27
2018-07-25T13:05:40.937Z,5.10
2018-07-25T13:08:09.525Z,5.73
2018-07-25T13:10:38.200Z,5.10
2018-07-25T13:13:07.586Z,5.40
2018-07-25T13:15:36.273Z,5.20
2018-07-25T13:18:04.930Z,4.73
2018-07-25T13:20:33.574Z,4.80
2018-07-25T13:23:02.244Z,4.97
2018-07-25T13:25:30.826Z,4.90
2018-07-25T13:27:59.547Z,5.37
2018-07-25T13:30:28.208Z,4.77
2018-07-25T13:32:56.835Z,4.70
2018-07-25T13:35:25.453Z,4.43
2018-07-25T13:37:54.050Z,5.00
2018-07-25T13:40:22.757Z,4.57
2018-07-25T13:42:51.699Z,4.37
2018-07-25T13:45:20.349Z,4.70
2018-07-25T13:47:49.253Z,4.77
2018-07-25T13:50:18.026Z,4.97
2018-07-25T13:52:46.734Z,4.57
2018-07-25T13:55:15.829Z,4.50
2018-07-25T13:57:44.463Z,4.33
2018-07-25T14:00:13.514Z,4.77
2018-07-25T14:02:42.713Z,4.50
2018-07-25T14:05:11.352Z,4.40
2018-07-25T14:07:39.974Z,4.40
2018-07-25T14:10:09.578Z,4.23
2018-07-25T14:12:38.146Z,4.60
2018-07-25T14:15:06.802Z,4.40
2018-07-25T14:17:35.373Z,4.60
2018-07-25T14:20:03.665Z,4.10
2018-07-25T14:22:32.291Z,4.77
2018-07-25T14:25:00.914Z,4.87
2018-07-25T14:27:29.506Z,4.17
2018-07-25T14:29:58.142Z,4.30
2018-07-25T14:32:26.717Z,4.10
2018-07-25T14:34:55.354Z,4.70
2018-07-25T14:37:23.969Z,4.07
2018-07-25T14:39:52.660Z,4.20
2018-07-25T14:42:21.213Z,4.70
2018-07-25T14:44:50.435Z,4.40
2018-07-25T14:47:19.105Z,4.50
2018-07-25T14:49:47.861Z,4.60
2018-07-25T14:52:16.536Z,4.57
2018-07-25T14:54:45.157Z,4.83
2018-07-25T15:04:22.876Z,5.00
2018-07-25T15:06:51.480Z,5.20
2018-07-25T15:09:20.823Z,5.40
2018-07-25T15:11:49.473Z,5.37
2018-07-25T15:14:18.082Z,5.30
2018-07-25T15:16:46.661Z,5.37
2018-07-25T15:19:15.908Z,5.87
2018-07-25T15:21:44.529Z,5.70
2018-07-25T15:24:13.082Z,5.50
2018-07-25T15:26:41.946Z,5.30
2018-07-25T15:29:10.628Z,5.40
2018-07-25T15:31:39.226Z,6.00
2018-07-25T15:34:07.818Z,5.37
2018-07-25T15:36:40.456Z,5.40
2018-07-25T15:39:20.491Z,5.53
2018-07-25T15:41:49.622Z,5.30
2018-07-25T15:44:19.352Z,5.60
2018-07-25T15:46:48.247Z,5.57
2018-07-25T15:49:16.868Z,5.30
2018-07-25T15:51:45.120Z,5.40
2018-07-25T15:54:13.722Z,5.03
2018-07-25T15:56:42.357Z,5.13
2018-07-25T15:59:11.005Z,4.40
2018-07-25T16:01:40.261Z,5.13
2018-07-25T16:04:09.916Z,5.10
2018-07-25T16:06:39.706Z,4.60
2018-07-25T16:09:09.776Z,5.10
2018-07-25T16:11:38.876Z,4.50
2018-07-25T16:14:07.627Z,4.60
2018-07-25T16:16:36.724Z,4.20
2018-07-25T16:19:05.589Z,4.80
2018-07-25T16:21:34.209Z,4.00
2018-07-25T16:24:02.885Z,5.10
2018-07-25T16:26:31.497Z,5.00
2018-07-25T16:29:01.804Z,5.13
2018-07-25T16:31:30.716Z,4.63
2018-07-25T16:33:59.326Z,4.70
2018-07-25T16:36:29.230Z,4.60
2018-07-25T16:38:58.674Z,4.60
2018-07-25T16:41:27.338Z,4.80
2018-07-25T16:43:55.989Z,4.90
2018-07-25T16:46:24.647Z,4.77
2018-07-25T16:48:53.243Z,4.80
2018-07-25T16:51:22.104Z,5.27
2018-07-25T16:53:50.709Z,4.43
2018-07-25T16:56:19.341Z,4.70
2018-07-25T16:58:47.928Z,4.60
2018-07-25T17:01:16.585Z,4.40
2018-07-25T17:03:45.479Z,4.60
2018-07-25T17:06:14.129Z,4.50
2018-07-25T17:08:43.462Z,5.03
2018-07-25T17:11:12.101Z,4.47
2018-07-25T17:13:42.033Z,5.67
2018-07-25T17:16:10.860Z,5.00
2018-07-25T17:18:39.460Z,5.07
2018-07-25T17:21:08.118Z,6.40
2018-07-25T17:23:36.918Z,5.50
2018-07-25T17:26:05.564Z,5.93
2018-07-25T17:28:35.273Z,6.27
2018-07-25T17:31:03.895Z,5.73
2018-07-25T17:33:32.140Z,4.87
2018-07-25T17:36:01.130Z,5.33
2018-07-25T17:38:29.796Z,5.23
2018-07-25T17:40:58.455Z,6.00
2018-07-25T17:43:27.041Z,5.43
2018-07-25T17:45:56.438Z,5.67
2018-07-25T17:48:25.024Z,6.23
2018-07-25T17:50:53.653Z,6.90
2018-07-25T17:53:22.256Z,5.90
2018-07-25T17:55:50.859Z,5.73
2018-07-25T17:58:19.439Z,6.03
2018-07-25T18:00:48.661Z,6.07
2018-07-25T18:03:17.276Z,6.27
2018-07-25T18:05:45.913Z,6.13
2018-07-25T18:08:15.195Z,5.93
2018-07-25T18:10:44.742Z,5.50
2018-07-25T18:13:19.422Z,6.07
2018-07-25T18:15:48.095Z,7.07
2018-07-25T18:18:16.679Z,6.37
2018-07-25T18:20:45.302Z,6.23
2018-07-25T18:23:13.574Z,6.63
2018-07-25T18:25:42.667Z,6.10
2018-07-25T18:28:11.274Z,6.23
2018-07-25T18:30:39.857Z,6.03
2018-07-25T18:33:08.468Z,6.37
2018-07-25T18:35:37.041Z,6.73
2018-07-25T18:38:05.913Z,6.40
2018-07-25T18:40:34.661Z,6.60
2018-07-25T18:43:03.801Z,6.07
2018-07-25T18:45:32.386Z,6.60
2018-07-25T18:48:01.048Z,7.20
2018-07-25T18:50:29.632Z,6.40
2018-07-25T18:52:58.293Z,6.63
2018-07-25T18:55:27.498Z,7.10
2018-07-25T18:57:56.329Z,7.00
2018-07-25T19:00:26.222Z,6.60
2018-07-25T19:02:54.821Z,7.13
2018-07-25T19:05:27.577Z,6.00
2018-07-25T19:07:56.929Z,6.37
2018-07-25T19:10:25.273Z,7.73
2018-07-25T19:12:54.821Z,7.00
2018-07-25T19:15:31.723Z,7.10
2018-07-25T19:18:01.173Z,7.27
2018-07-25T19:20:30.666Z,6.87
2018-07-25T19:23:00.061Z,6.97
2018-07-25T19:25:29.758Z,6.07
2018-07-25T19:27:59.350Z,6.67
2018-07-25T19:30:27.968Z,6.33
2018-07-25T19:32:57.170Z,6.57
2018-07-25T19:35:25.769Z,6.73
2018-07-25T19:37:55.063Z,6.87
2018-07-25T19:40:23.652Z,6.60
2018-07-25T19:42:52.464Z,6.73
2018-07-25T19:45:20.697Z,6.60
2018-07-25T19:47:50.125Z,6.57
2018-07-25T19:50:19.135Z,6.40
2018-07-25T19:52:47.814Z,7.07
2018-07-25T19:55:16.418Z,7.30
2018-07-25T19:57:45.064Z,7.28
2018-07-25T20:00:16.551Z,6.80
2018-07-25T20:02:43.071Z,6.30
2018-07-25T20:05:12.370Z,6.93
2018-07-25T20:07:40.941Z,7.40
2018-07-25T20:10:09.520Z,6.87
2018-07-25T20:12:38.209Z,6.60
2018-07-25T20:15:13.808Z,6.87
2018-07-25T20:17:42.412Z,7.03
2018-07-25T20:20:11.131Z,6.83
2018-07-25T20:22:39.713Z,7.77
2018-07-25T20:25:08.993Z,7.90
2018-07-25T20:27:37.598Z,7.47
2018-07-25T20:30:07.551Z,7.60
2018-07-25T20:32:42.394Z,7.90
2018-07-25T20:35:10.977Z,7.27
2018-07-25T20:37:39.217Z,7.17
2018-07-25T20:40:07.833Z,6.50
2018-07-25T20:42:36.446Z,6.20
2018-07-25T20:45:05.877Z,5.70
2018-07-25T20:47:34.469Z,6.10
2018-07-25T20:50:03.297Z,6.90
2018-07-25T20:52:31.912Z,5.87
2018-07-25T20:55:00.525Z,6.80
2018-07-25T20:57:29.216Z,6.60
2018-07-25T20:59:57.894Z,6.50
2018-07-25T21:02:26.485Z,6.17
2018-07-25T21:04:55.104Z,6.10
2018-07-25T21:07:23.352Z,6.57
2018-07-25T21:09:51.926Z,6.37
2018-07-25T21:12:20.517Z,6.40
2018-07-25T21:14:49.099Z,6.70
2018-07-25T21:17:17.760Z,6.50
2018-07-25T21:19:46.454Z,6.23
2018-07-25T21:22:15.050Z,5.80
2018-07-25T21:24:43.678Z,6.27
2018-07-25T21:27:11.915Z,5.87
2018-07-25T21:29:40.486Z,6.10
2018-07-25T21:32:09.957Z,5.67
2018-07-25T21:34:38.560Z,6.20
2018-07-25T21:37:07.174Z,5.73
2018-07-25T21:39:35.709Z,5.43
2018-07-25T21:42:04.341Z,5.20
2018-07-25T21:44:32.922Z,4.97
2018-07-25T21:47:01.475Z,5.43
2018-07-25T21:49:30.077Z,5.87
2018-07-25T21:51:58.659Z,5.90
2018-07-25T21:54:27.256Z,5.10
2018-07-25T21:56:55.924Z,4.73
2018-07-25T21:59:24.516Z,5.40
2018-07-25T22:01:53.098Z,5.40
2018-07-25T22:04:21.717Z,5.73
2018-07-25T22:06:50.920Z,5.27
2018-07-25T22:09:19.498Z,6.07
2018-07-25T22:11:48.090Z,6.37
2018-07-25T22:14:16.716Z,6.67
2018-07-25T22:16:45.296Z,5.57
2018-07-25T22:19:13.901Z,5.80
2018-07-25T22:21:42.474Z,7.43
2018-07-25T22:24:11.102Z,6.63
2018-07-25T22:26:39.690Z,5.73
2018-07-25T22:29:08.306Z,5.60
2018-07-25T22:31:36.526Z,5.47
2018-07-25T22:34:05.134Z,5.33
2018-07-25T22:36:33.690Z,5.43
2018-07-25T22:39:03.126Z,5.27
2018-07-25T22:41:31.670Z,5.97
2018-07-25T22:44:01.018Z,5.43
2018-07-25T22:46:29.561Z,5.27
2018-07-25T22:48:58.130Z,5.03
2018-07-25T22:51:26.719Z,4.87
2018-07-25T22:53:55.297Z,5.17
2018-07-25T22:56:24.387Z,5.13
2018-07-25T22:58:52.659Z,4.93
2018-07-25T23:01:21.833Z,5.10
2018-07-25T23:03:51.159Z,4.73
2018-07-25T23:06:20.172Z,4.30
2018-07-25T23:08:48.756Z,4.63
2018-07-25T23:11:17.382Z,5.27
2018-07-25T23:13:46.137Z,4.37
2018-07-25T23:16:16.485Z,4.80
2018-07-25T23:18:45.684Z,4.87
2018-07-25T23:21:15.594Z,5.60
2018-07-25T23:23:44.205Z,5.47
2018-07-25T23:26:13.310Z,5.37
2018-07-25T23:28:43.261Z,5.63
2018-07-25T23:31:12.594Z,5.70
2018-07-25T23:33:41.205Z,5.27
2018-07-25T23:36:10.337Z,5.33
2018-07-25T23:38:40.238Z,5.70
2018-07-25T23:41:09.422Z,5.60
2018-07-25T23:43:38.019Z,5.03
2018-07-25T23:46:06.245Z,5.87
2018-07-25T23:48:34.828Z,5.80
2018-07-25T23:51:04.032Z,5.97
2018-07-25T23:53:32.686Z,5.73
2018-07-25T23:56:02.029Z,5.37
2018-07-25T23:58:31.073Z,5.03
